Quincy, CA

9:31 AM PDT on June 02, 2015 (GMT -0700)
Chico Municipal | | Change Station
CLOSE
Current Station
Airport
Location: Chico,
Elevation: 240 ft
Nearby Weather Stations

Elev 240 ft 39.80 °N, 121.86 °W | Updated 41 minutes ago

Clear
Clear
64 °F
Feels Like 64 °F
N
6
Wind Variable Wind from Variable

Today
High -- | Low -- °F
--% Chance of Precip.
Yesterday
High -- | Low -- °F
Precip. -- in
5:36 AM 8:26 PM
Full, 100% visible
Pressure 30.04 in
Visibility 40.0 miles
Clouds Few 4000 ft
Few 7000 ft
Scattered Clouds 20000 ft
Dew Point 54 °F
Humidity 68%
Rainfall 0.00 in
Snow Depth Not available.
UV 3 out of 12
Pollen 6.40 out of 12
Air Quality Not available.
Flu Activity Sporadic
METAR KCIC 021550Z VRB05KT 40SM FEW040 FEW070 SCT200 18/12 A3004

More Conditions Fewer Conditions

Pressure 30.04 in
Visibility 40.0 miles
Clouds Few 4000 ft
Few 7000 ft
Scattered Clouds 20000 ft
Dew Point 54 °F
Humidity 68%
Rainfall 0.00 in
Snow Depth Not available.
UV 3 out of 12
Pollen 6.40 out of 12
Air Quality Not available.
Flu Activity Sporadic
METAR KCIC 021550Z VRB05KT 40SM FEW040 FEW070 SCT200 18/12 A3004

More Conditions Fewer Conditions

10-Day Weather Forecast

Almanac

Astronomy

Jun. 02, 2015 Rise Set
Actual Time
Civil Twilight
Nautical Twilight
Astronomical Twilight
Moon
Length of Visible Light
Length of Day
Tomorrow will be .
, % of the Moon is Illuminated

Today's Extremes

State Highs State Lows

Community

WunderPhotos

Upload Photos

1,825,976 photos uploaded!

WunderBlogs® & News

Nearby

Air Quality

  Air Quality AQ Index Pollutant
Not available.

Snow Depth

Station Depth Elevation

Earthquake Activity

City Distance Mag. Time & Date
Minimum magnitude displayed is 2.5.

Coastal Water Temperatures

Place Temperature

Stations

Nearby Weather Stations

Station Location Temp. Windchill Dew Point Humidity Wind Precip. Elev Updated Type